Terminal Aerodrome Forecast
Issued by NWS

Home | Current Version | Previous Version | Text Only | Print | Product List | Glossary On
Versions: 1 2 3 4 5 6 7 8 9 10 11 12 13 14 15
115
FTUS41 KPHI 280104 AAA
TAFMIV
TAF AMD
KMIV 280104Z 2801/2824 VRB03KT P6SM BKN035
     FM280200 VRB03KT P6SM SCT035
      TEMPO 2808/2811 4SM BR SCT015
     FM281200 05006KT P6SM BKN040
     FM281400 08008KT P6SM BKN035
     FM281600 08010KT P6SM OVC025
     FM282200 08012KT P6SM VCSH OVC015=

USA.gov is the U.S. government's official web portal to all federal, state and local government web resources and services.